Time;durP1;ratioP1;P1;durP2;ratioP2;P2;SDS_P1;SDS_P2;PMS_P1;PMS_P2;Temp;Humidity;BMP_temperature;BMP_pressure;BME280_temperature;BME280_humidity;BME280_pressure;Samples;Min_cycle;Max_cycle;Signal;HPM_P1;HPM_P2
2024/03/31 00:00:09;;;;;;;41.20;5.57;;;13.80;99.90;;;;;;4425096;28;658023;-65
2024/03/31 00:02:56;;;;;;;33.10;5.00;;;13.90;99.90;;;;;;4404683;28;658303;-65
2024/03/31 00:05:42;;;;;;;41.07;5.13;;;13.90;99.90;;;;;;4421047;28;658283;-65
2024/03/31 00:08:30;;;;;;;39.20;4.67;;;13.90;99.90;;;;;;4422046;28;658223;-66
2024/03/31 00:11:18;;;;;;;47.27;6.57;;;13.80;99.90;;;;;;4418224;28;658423;-65
2024/03/31 00:14:05;;;;;;;45.17;5.90;;;13.80;99.90;;;;;;4408306;28;657420;-67
2024/03/31 00:16:51;;;;;;;49.23;6.80;;;13.80;99.90;;;;;;4426852;28;658238;-65
2024/03/31 00:19:38;;;;;;;37.40;5.00;;;13.70;99.90;;;;;;4425350;28;657580;-65
2024/03/31 00:22:26;;;;;;;34.87;4.83;;;13.80;99.90;;;;;;4407893;28;657559;-65
2024/03/31 00:25:12;;;;;;;49.00;5.90;;;13.60;1.00;;;;;;4428186;28;657913;-65
2024/03/31 00:28:01;;;;;;;33.53;5.77;;;13.50;99.90;;;;;;4422238;28;656557;-66
2024/03/31 00:30:53;;;;;;;39.67;6.10;;;13.60;99.90;;;;;;4403188;28;658523;-65
2024/03/31 00:33:40;;;;;;;35.13;5.40;;;13.80;99.90;;;;;;4392095;28;658564;-66
2024/03/31 00:36:27;;;;;;;37.47;5.23;;;13.80;99.90;;;;;;4432799;28;657927;-65
2024/03/31 00:39:14;;;;;;;38.57;4.90;;;13.80;99.90;;;;;;4422582;28;657520;-65
2024/03/31 00:42:01;;;;;;;55.33;6.07;;;13.80;99.90;;;;;;4426755;28;657372;-65
2024/03/31 00:44:49;;;;;;;37.07;5.83;;;13.80;99.90;;;;;;4411278;28;658939;-66
2024/03/31 00:47:36;;;;;;;39.47;5.20;;;13.70;1.00;;;;;;4401284;28;657536;-65
2024/03/31 00:50:22;;;;;;;43.70;7.30;;;13.70;99.90;;;;;;4423940;28;657588;-65
2024/03/31 00:53:10;;;;;;;32.73;5.17;;;13.80;99.90;;;;;;4417046;28;657747;-66
2024/03/31 00:55:56;;;;;;;36.37;5.37;;;13.80;99.90;;;;;;4429605;28;658133;-65
2024/03/31 00:58:43;;;;;;;41.83;5.73;;;13.90;99.90;;;;;;4420040;28;658650;-65
2024/03/31 01:01:32;;;;;;;43.30;5.07;;;13.90;99.90;;;;;;4404684;28;659100;-65
2024/03/31 01:04:18;;;;;;;51.40;6.00;;;13.90;99.90;;;;;;4426676;28;658179;-65
2024/03/31 01:07:06;;;;;;;39.83;4.80;;;13.90;99.90;;;;;;4403058;28;658115;-65
2024/03/31 01:09:52;;;;;;;33.80;4.93;;;13.90;99.90;;;;;;4430618;28;657893;-65
2024/03/31 01:12:39;;;;;;;41.40;5.60;;;13.80;99.90;;;;;;4424849;28;657729;-65
2024/03/31 01:15:25;;;;;;;42.37;5.53;;;13.70;99.90;;;;;;4406692;28;657865;-65
2024/03/31 01:18:14;;;;;;;36.33;6.30;;;13.70;99.90;;;;;;4429518;28;657303;-65
2024/03/31 01:21:00;;;;;;;32.27;5.57;;;13.60;99.90;;;;;;4399088;28;657682;-65
2024/03/31 01:23:55;;;;;;;46.23;5.63;;;13.60;99.90;;;;;;4429594;28;657482;-66
2024/03/31 01:26:42;;;;;;;25.87;4.53;;;13.60;99.90;;;;;;4399519;28;658154;-65
2024/03/31 01:29:29;;;;;;;31.87;3.90;;;13.60;99.90;;;;;;4424922;28;657420;-65
2024/03/31 01:32:16;;;;;;;34.87;4.23;;;13.70;99.90;;;;;;4402778;28;657641;-65
2024/03/31 01:35:03;;;;;;;28.60;4.30;;;13.70;99.90;;;;;;4420310;28;658276;-65
2024/03/31 01:37:50;;;;;;;38.10;4.68;;;13.70;99.90;;;;;;4409109;28;657518;-66
2024/03/31 01:40:38;;;;;;;35.87;4.77;;;13.70;99.90;;;;;;4426431;28;658674;-65
2024/03/31 01:43:25;;;;;;;35.17;4.60;;;13.60;99.90;;;;;;4399756;28;657508;-66
2024/03/31 01:46:11;;;;;;;26.33;4.17;;;13.60;1.00;;;;;;4428774;28;658220;-65
2024/03/31 01:48:58;;;;;;;35.17;4.97;;;13.50;1.00;;;;;;4424862;28;658423;-66
2024/03/31 01:51:46;;;;;;;41.13;4.97;;;13.50;1.00;;;;;;4406942;28;656646;-67
2024/03/31 01:54:33;;;;;;;28.77;4.30;;;13.40;1.00;;;;;;4426152;28;658012;-65
2024/03/31 01:57:21;;;;;;;35.43;4.43;;;13.40;1.00;;;;;;4405887;28;657010;-66
2024/03/31 02:00:09;;;;;;;42.27;4.43;;;13.20;1.00;;;;;;4423910;28;656514;-67
2024/03/31 02:02:56;;;;;;;25.67;4.33;;;13.10;1.00;;;;;;4404913;28;656620;-65
2024/03/31 02:05:43;;;;;;;33.47;4.57;;;13.10;1.00;;;;;;4423598;28;657088;-65
2024/03/31 02:08:30;;;;;;;26.97;4.33;;;13.20;1.00;;;;;;4408862;28;656387;-65
2024/03/31 02:11:17;;;;;;;31.53;4.67;;;13.20;1.00;;;;;;4430791;28;656620;-65
2024/03/31 02:14:04;;;;;;;38.93;4.07;;;13.20;1.00;;;;;;4424331;28;657495;-65
2024/03/31 02:16:52;;;;;;;31.63;4.50;;;13.40;1.00;;;;;;4407100;28;657315;-65
2024/03/31 02:19:38;;;;;;;43.50;4.70;;;13.40;1.00;;;;;;4423313;28;656506;-64
2024/03/31 02:22:25;;;;;;;30.23;3.90;;;13.30;1.00;;;;;;4404755;28;656986;-67
2024/03/31 02:25:11;;;;;;;35.80;4.60;;;13.20;1.00;;;;;;4434996;28;655803;-65
2024/03/31 02:27:59;;;;;;;26.67;4.27;;;13.20;1.00;;;;;;4425986;28;657595;-66
2024/03/31 02:30:46;;;;;;;38.10;4.67;;;13.20;1.00;;;;;;4404950;28;656844;-65
2024/03/31 02:33:34;;;;;;;34.43;4.00;;;13.10;1.00;;;;;;4432632;28;658029;-65
2024/03/31 02:36:20;;;;;;;33.17;4.53;;;13.10;1.00;;;;;;4411802;28;656831;-65
2024/03/31 02:39:07;;;;;;;36.10;4.30;;;13.10;1.00;;;;;;4421065;28;657102;-65
2024/03/31 02:41:53;;;;;;;35.47;4.20;;;13.00;1.00;;;;;;4416868;28;657694;-65
2024/03/31 02:44:41;;;;;;;33.17;4.80;;;13.30;1.00;;;;;;4406329;28;656404;-65
2024/03/31 02:47:28;;;;;;;32.13;4.43;;;13.20;1.00;;;;;;4424706;28;657419;-65
2024/03/31 02:50:16;;;;;;;26.80;4.03;;;13.30;1.00;;;;;;4407221;28;656926;-66
2024/03/31 02:53:03;;;;;;;37.53;4.90;;;13.30;1.00;;;;;;4430271;28;657395;-65
2024/03/31 02:55:49;;;;;;;25.73;3.67;;;13.50;99.90;;;;;;4408609;28;656389;-66
2024/03/31 02:58:36;;;;;;;38.90;4.47;;;13.50;99.90;;;;;;4433561;28;657458;-65
2024/03/31 03:01:23;;;;;;;30.33;4.03;;;13.50;99.90;;;;;;4422962;28;659060;-65
2024/03/31 03:04:12;;;;;;;40.07;3.73;;;13.50;99.90;;;;;;4413006;28;657447;-66
2024/03/31 03:06:58;;;;;;;32.80;4.40;;;13.40;99.90;;;;;;4419067;28;657199;-66
2024/03/31 03:09:45;;;;;;;36.03;3.83;;;13.30;99.90;;;;;;4399236;28;657674;-66
2024/03/31 03:12:31;;;;;;;26.37;3.63;;;13.40;99.90;;;;;;4424467;28;658820;-65
2024/03/31 03:15:19;;;;;;;30.27;4.00;;;13.40;1.00;;;;;;4423659;28;658543;-65
2024/03/31 03:18:05;;;;;;;29.27;4.60;;;13.40;1.00;;;;;;4406822;28;656497;-65
2024/03/31 03:20:57;;;;;;;28.20;3.70;;;13.40;1.00;;;;;;4428656;28;656802;-65
2024/03/31 03:23:43;;;;;;;25.33;4.30;;;13.30;1.00;;;;;;4403080;28;657603;-65
2024/03/31 03:26:30;;;;;;;25.43;4.43;;;13.30;99.90;;;;;;4411226;28;657144;-67
2024/03/31 03:29:16;;;;;;;22.33;3.63;;;13.30;99.90;;;;;;4419958;28;658376;-65
2024/03/31 03:32:04;;;;;;;32.77;4.33;;;13.30;99.90;;;;;;4416976;28;657699;-65
2024/03/31 03:34:51;;;;;;;28.70;4.03;;;13.30;99.90;;;;;;4408803;28;657402;-65
2024/03/31 03:37:39;;;;;;;29.23;4.10;;;13.30;1.00;;;;;;4429660;28;658413;-65
2024/03/31 03:40:27;;;;;;;25.70;3.83;;;13.30;99.90;;;;;;4402137;28;656335;-65
2024/03/31 03:43:14;;;;;;;33.50;3.87;;;13.30;99.90;;;;;;4421724;28;657796;-66
2024/03/31 03:46:02;;;;;;;30.43;4.30;;;13.30;99.90;;;;;;4402009;28;657564;-65
2024/03/31 03:48:48;;;;;;;30.37;4.30;;;13.30;99.90;;;;;;4423454;28;658420;-65
2024/03/31 03:51:36;;;;;;;28.08;3.90;;;13.30;99.90;;;;;;4407384;28;657988;-65
2024/03/31 03:54:24;;;;;;;28.77;3.50;;;13.30;99.90;;;;;;4426856;28;658044;-65
2024/03/31 03:57:11;;;;;;;19.80;2.97;;;13.30;1.00;;;;;;4405694;28;657850;-65
2024/03/31 03:59:58;;;;;;;28.37;3.70;;;13.30;99.90;;;;;;4428963;28;657323;-65
2024/03/31 04:02:46;;;;;;;31.77;3.80;;;13.20;99.90;;;;;;4414013;28;657056;-66
2024/03/31 04:05:32;;;;;;;25.97;3.43;;;13.50;99.90;;;;;;4418868;28;657508;-65
2024/03/31 04:08:19;;;;;;;20.17;3.90;;;13.60;99.90;;;;;;4412529;28;657630;-65
2024/03/31 04:11:08;;;;;;;18.70;3.07;;;13.60;99.90;;;;;;4397281;28;657666;-65
2024/03/31 04:13:54;;;;;;;21.13;3.53;;;13.60;99.90;;;;;;4416793;28;657618;-66
2024/03/31 04:16:41;;;;;;;20.53;3.57;;;13.70;99.90;;;;;;4424283;28;657366;-65
2024/03/31 04:19:28;;;;;;;24.33;3.30;;;13.70;99.90;;;;;;4412708;28;658576;-65
2024/03/31 04:22:15;;;;;;;30.43;3.90;;;13.70;99.90;;;;;;4414903;28;657326;-66
2024/03/31 04:25:02;;;;;;;19.17;3.50;;;13.80;99.90;;;;;;4420097;28;658721;-65
2024/03/31 04:27:52;;;;;;;22.93;3.43;;;13.80;99.90;;;;;;4424205;28;658495;-65
2024/03/31 04:30:41;;;;;;;37.73;3.30;;;13.80;99.90;;;;;;4402291;28;658474;-65
2024/03/31 04:33:29;;;;;;;26.00;3.53;;;13.80;99.90;;;;;;4403852;28;658597;-65
2024/03/31 04:36:16;;;;;;;24.80;3.43;;;13.60;99.90;;;;;;4408165;28;659031;-65
2024/03/31 04:39:04;;;;;;;20.17;3.00;;;13.60;99.90;;;;;;4429552;28;658832;-65
2024/03/31 04:41:52;;;;;;;18.93;3.13;;;13.60;99.90;;;;;;4400484;28;657591;-65
2024/03/31 04:44:40;;;;;;;19.47;3.60;;;13.70;99.90;;;;;;4420532;28;657651;-65
2024/03/31 04:47:27;;;;;;;23.37;3.30;;;13.80;99.90;;;;;;4408364;28;657834;-65
2024/03/31 04:50:15;;;;;;;22.97;3.70;;;13.70;99.90;;;;;;4420493;28;658338;-65
2024/03/31 04:53:01;;;;;;;17.20;3.87;;;13.70;99.90;;;;;;4403920;28;659264;-65
2024/03/31 04:55:48;;;;;;;26.27;3.93;;;13.60;99.90;;;;;;4427074;28;658505;-65
2024/03/31 04:58:34;;;;;;;23.53;3.30;;;13.70;1.00;;;;;;4403592;28;657406;-65
2024/03/31 05:01:24;;;;;;;24.23;3.47;;;13.60;1.00;;;;;;4422534;28;656541;-65
2024/03/31 05:04:11;;;;;;;26.87;3.67;;;13.60;1.00;;;;;;4405428;28;656943;-65
2024/03/31 05:06:59;;;;;;;28.70;3.50;;;13.60;1.00;;;;;;4426825;28;656921;-65
2024/03/31 05:09:46;;;;;;;25.83;3.67;;;13.50;1.00;;;;;;4399849;28;656712;-65
2024/03/31 05:12:33;;;;;;;24.73;3.13;;;13.50;1.00;;;;;;4424941;28;656913;-65
2024/03/31 05:15:19;;;;;;;16.83;2.63;;;13.40;1.00;;;;;;4410985;28;656600;-66
2024/03/31 05:18:08;;;;;;;15.03;3.60;;;13.40;1.00;;;;;;4422942;28;656150;-65
2024/03/31 05:20:56;;;;;;;16.67;3.03;;;13.40;1.00;;;;;;4403076;28;656536;-66
2024/03/31 05:23:45;;;;;;;17.97;3.33;;;13.40;1.00;;;;;;4424789;28;657978;-65
2024/03/31 05:26:32;;;;;;;25.43;3.27;;;13.30;1.00;;;;;;4405773;28;657717;-66
2024/03/31 05:29:19;;;;;;;16.53;3.03;;;13.30;1.00;;;;;;4424674;28;656600;-64
2024/03/31 05:32:06;;;;;;;21.05;3.80;;;13.40;1.00;;;;;;4405574;28;656745;-66
2024/03/31 05:34:55;;;;;;;18.10;3.10;;;13.50;1.00;;;;;;4428422;28;657004;-65
2024/03/31 05:37:41;;;;;;;15.83;2.37;;;13.50;1.00;;;;;;4398677;28;657488;-65
2024/03/31 05:40:28;;;;;;;20.80;3.60;;;13.60;1.00;;;;;;4432323;28;657816;-65
2024/03/31 05:43:14;;;;;;;30.63;3.27;;;13.80;1.00;;;;;;4409060;28;657453;-65
2024/03/31 05:46:02;;;;;;;18.03;2.97;;;13.90;1.00;;;;;;4427194;28;656373;-65
2024/03/31 05:48:48;;;;;;;26.40;4.03;;;14.10;1.00;;;;;;4426728;28;656428;-65
2024/03/31 05:51:37;;;;;;;22.83;3.47;;;14.30;1.00;;;;;;4409889;28;656540;-66
2024/03/31 05:54:23;;;;;;;24.27;2.80;;;14.50;1.00;;;;;;4426371;28;657216;-66
2024/03/31 05:57:10;;;;;;;16.60;2.67;;;14.60;99.90;;;;;;4407408;28;656765;-67
2024/03/31 05:59:57;;;;;;;14.97;2.27;;;14.70;99.90;;;;;;4428548;28;657088;-65
2024/03/31 06:02:44;;;;;;;15.00;2.40;;;14.90;99.90;;;;;;4422648;28;657783;-65
2024/03/31 06:05:30;;;;;;;18.70;2.43;;;15.20;99.90;;;;;;4403534;28;657546;-65
2024/03/31 06:08:19;;;;;;;19.47;3.40;;;15.40;99.90;;;;;;4429730;28;658556;-65
2024/03/31 06:11:05;;;;;;;15.70;2.37;;;15.70;99.90;;;;;;4406368;28;657558;-65
2024/03/31 06:13:52;;;;;;;14.20;2.37;;;15.90;99.90;;;;;;4419619;28;657759;-65
2024/03/31 06:16:38;;;;;;;20.43;2.73;;;16.20;99.90;;;;;;4422944;28;657721;-65
2024/03/31 06:19:25;;;;;;;15.47;2.53;;;16.50;99.90;;;;;;4399157;28;658313;-66
2024/03/31 06:22:12;;;;;;;24.03;2.20;;;16.60;99.90;;;;;;4426196;28;658911;-66
2024/03/31 06:25:00;;;;;;;14.47;2.10;;;16.80;99.90;;;;;;4424589;28;658801;-65
2024/03/31 06:27:47;;;;;;;24.60;2.50;;;17.00;99.90;;;;;;4410665;28;658168;-65
2024/03/31 06:30:34;;;;;;;22.00;2.80;;;17.10;99.90;;;;;;4425798;28;658002;-65
2024/03/31 06:33:20;;;;;;;23.02;3.05;;;17.30;99.90;;;;;;4397188;28;657413;-65
2024/03/31 06:36:08;;;;;;;9.70;2.07;;;17.40;99.90;;;;;;4425169;28;657016;-64
2024/03/31 06:38:54;;;;;;;19.30;2.50;;;17.50;99.90;;;;;;4429231;28;656489;-65
2024/03/31 06:41:43;;;;;;;17.20;2.67;;;17.60;99.90;;;;;;4426667;28;657083;-64
2024/03/31 06:44:30;;;;;;;16.17;2.60;;;17.70;99.90;;;;;;4409558;28;657673;-66
2024/03/31 06:47:18;;;;;;;13.77;2.40;;;17.80;99.90;;;;;;4430316;28;657596;-64
2024/03/31 06:50:05;;;;;;;15.90;2.10;;;17.90;99.90;;;;;;4423895;28;657699;-66
2024/03/31 06:52:52;;;;;;;20.00;2.33;;;17.90;99.90;;;;;;4425307;28;657707;-65
2024/03/31 06:55:42;;;;;;;15.57;2.50;;;18.00;99.90;;;;;;4417625;28;658060;-64
2024/03/31 06:58:30;;;;;;;17.63;2.37;;;18.00;99.90;;;;;;4398471;28;658037;-64
2024/03/31 07:01:16;;;;;;;17.80;2.90;;;17.90;99.90;;;;;;4411446;28;658864;-65
2024/03/31 07:04:04;;;;;;;20.23;2.60;;;18.10;99.90;;;;;;4419812;28;657839;-66
2024/03/31 07:06:51;;;;;;;21.93;3.40;;;18.20;99.90;;;;;;4404541;28;658209;-65
2024/03/31 07:09:37;;;;;;;19.93;2.97;;;18.40;99.90;;;;;;4426280;28;658437;-65
2024/03/31 07:12:24;;;;;;;18.83;2.97;;;18.50;99.90;;;;;;4428114;28;657053;-65
2024/03/31 07:15:12;;;;;;;17.47;2.73;;;18.70;99.90;;;;;;4402114;28;658269;-64
2024/03/31 07:18:05;;;;;;;20.53;3.07;;;18.70;99.90;;;;;;4435944;28;657909;-64
2024/03/31 07:20:51;;;;;;;19.20;2.37;;;18.80;99.90;;;;;;4375984;28;658673;-64
2024/03/31 07:23:38;;;;;;;20.00;3.17;;;18.90;99.90;;;;;;4428973;28;659459;-65
2024/03/31 07:26:26;;;;;;;22.07;2.80;;;18.90;99.90;;;;;;4407178;28;658349;-67
2024/03/31 07:29:12;;;;;;;19.53;2.70;;;19.10;99.90;;;;;;4426428;28;658476;-65
2024/03/31 07:32:01;;;;;;;21.23;2.93;;;19.40;99.90;;;;;;4420668;28;657825;-65
2024/03/31 07:34:47;;;;;;;15.30;3.13;;;19.60;99.90;;;;;;4399480;28;658390;-65
2024/03/31 07:37:35;;;;;;;22.47;2.77;;;19.80;99.90;;;;;;4423659;28;658213;-65
2024/03/31 07:40:21;;;;;;;21.60;2.13;;;20.00;1.00;;;;;;4393467;28;657319;-65
2024/03/31 07:43:10;;;;;;;22.23;2.20;;;20.10;99.90;;;;;;4426246;28;657831;-64
2024/03/31 07:45:56;;;;;;;24.97;2.90;;;20.20;1.00;;;;;;4404843;28;657239;-65
2024/03/31 07:48:44;;;;;;;16.07;2.37;;;20.40;1.00;;;;;;4421023;28;657656;-65
2024/03/31 07:51:31;;;;;;;13.80;2.00;;;20.60;1.00;;;;;;4402395;28;656195;-65
2024/03/31 07:54:18;;;;;;;23.43;2.83;;;20.90;1.00;;;;;;4416283;28;657331;-65
2024/03/31 07:57:05;;;;;;;23.57;2.90;;;21.10;1.00;;;;;;4417121;28;656460;-65
2024/03/31 07:59:52;;;;;;;21.87;2.67;;;21.10;1.00;;;;;;4424571;28;656411;-65
2024/03/31 08:02:38;;;;;;;19.77;2.80;;;21.40;1.00;;;;;;4420768;28;656569;-65
2024/03/31 08:05:27;;;;;;;28.00;2.80;;;21.40;1.00;;;;;;4410576;28;657002;-67
2024/03/31 08:08:13;;;;;;;18.93;2.37;;;21.40;1.00;;;;;;4411666;28;656353;-65
2024/03/31 08:11:00;;;;;;;18.57;2.50;;;21.50;1.00;;;;;;4402750;28;656563;-67
2024/03/31 08:13:47;;;;;;;17.30;2.60;;;21.50;1.00;;;;;;4432292;28;656428;-65
2024/03/31 08:16:34;;;;;;;20.63;2.83;;;21.60;1.00;;;;;;4427315;28;657657;-64
2024/03/31 08:19:20;;;;;;;16.70;2.63;;;21.60;1.00;;;;;;4393623;28;656219;-65
2024/03/31 08:22:09;;;;;;;19.07;2.77;;;21.50;1.00;;;;;;4426034;28;656419;-65
2024/03/31 08:24:55;;;;;;;12.90;2.17;;;21.60;1.00;;;;;;4393698;28;656505;-65
2024/03/31 08:27:42;;;;;;;15.93;2.47;;;21.70;1.00;;;;;;4422820;28;656486;-65
2024/03/31 08:30:28;;;;;;;23.23;2.40;;;21.20;1.00;;;;;;4423591;28;657079;-64
2024/03/31 08:33:16;;;;;;;28.03;2.97;;;21.20;1.00;;;;;;4408215;28;656416;-66
2024/03/31 08:36:02;;;;;;;21.97;2.47;;;21.40;1.00;;;;;;4429778;28;657488;-65
2024/03/31 08:38:51;;;;;;;12.47;1.70;;;21.70;1.00;;;;;;4424825;28;656534;-65
2024/03/31 08:41:41;;;;;;;33.53;3.00;;;22.10;1.00;;;;;;4394449;28;657931;-64
2024/03/31 08:44:28;;;;;;;27.93;3.30;;;22.20;1.00;;;;;;4399889;28;657074;-65
2024/03/31 08:47:17;;;;;;;32.83;4.00;;;22.20;1.00;;;;;;4403080;28;656423;-66
2024/03/31 08:50:05;;;;;;;27.90;3.40;;;22.50;1.00;;;;;;4412328;28;656928;-65
2024/03/31 08:52:51;;;;;;;20.30;2.23;;;22.80;1.00;;;;;;4391516;28;658331;-65
2024/03/31 08:55:40;;;;;;;32.42;2.65;;;23.10;1.00;;;;;;4425774;28;658194;-65
2024/03/31 08:58:27;;;;;;;19.07;2.60;;;23.10;1.00;;;;;;4398536;28;657534;-65
2024/03/31 09:01:14;;;;;;;29.63;3.10;;;23.00;1.00;;;;;;4419259;28;657712;-64
2024/03/31 09:04:01;;;;;;;25.13;2.83;;;23.00;1.00;;;;;;4406272;28;656951;-66
2024/03/31 09:06:48;;;;;;;21.90;3.10;;;23.00;1.00;;;;;;4428703;28;657683;-65
2024/03/31 09:09:39;;;;;;;18.73;2.67;;;23.00;1.00;;;;;;4417581;28;655932;-66
2024/03/31 09:12:28;;;;;;;31.63;3.07;;;23.00;1.00;;;;;;4408685;28;656654;-65
2024/03/31 09:15:15;;;;;;;31.43;2.80;;;22.60;1.00;;;;;;4420959;28;656543;-66
2024/03/31 09:18:02;;;;;;;26.73;2.90;;;22.40;1.00;;;;;;4417771;28;657192;-65
2024/03/31 09:20:49;;;;;;;26.77;3.20;;;21.80;1.00;;;;;;4426185;28;656445;-65
2024/03/31 09:23:36;;;;;;;28.97;3.13;;;21.90;1.00;;;;;;4409164;28;656524;-65
2024/03/31 09:26:23;;;;;;;32.60;3.30;;;22.10;1.00;;;;;;4419436;28;657792;-65
2024/03/31 09:29:12;;;;;;;27.80;3.07;;;22.40;1.00;;;;;;4399223;28;656574;-66
2024/03/31 09:32:06;;;;;;;30.37;3.40;;;22.30;1.00;;;;;;4429578;28;657988;-65
2024/03/31 09:34:52;;;;;;;54.17;4.80;;;22.20;1.00;;;;;;4378281;28;657359;-65
2024/03/31 09:37:39;;;;;;;22.43;2.97;;;22.50;1.00;;;;;;4418130;28;658309;-64
2024/03/31 09:40:27;;;;;;;57.83;4.97;;;22.10;1.00;;;;;;4400501;28;656685;-64
2024/03/31 09:43:13;;;;;;;46.50;4.10;;;21.80;1.00;;;;;;4422366;28;657070;-64
2024/03/31 09:46:02;;;;;;;54.30;4.90;;;21.90;1.00;;;;;;4404750;28;657072;-65
2024/03/31 09:48:51;;;;;;;49.93;5.27;;;22.20;1.00;;;;;;4416805;28;657085;-64
2024/03/31 09:51:39;;;;;;;42.43;4.83;;;22.40;1.00;;;;;;4398530;28;657226;-64
2024/03/31 09:54:31;;;;;;;37.90;4.80;;;22.60;1.00;;;;;;4407333;28;656691;-64
2024/03/31 09:57:17;;;;;;;49.97;4.80;;;22.40;1.00;;;;;;4397415;28;657434;-64
2024/03/31 10:00:06;;;;;;;52.87;5.30;;;22.60;1.00;;;;;;4428444;28;656261;-64
2024/03/31 10:02:56;;;;;;;64.00;5.97;;;22.40;1.00;;;;;;4394300;28;657313;-64
2024/03/31 10:05:44;;;;;;;51.20;5.33;;;22.80;1.00;;;;;;4400052;28;657996;-64
2024/03/31 10:08:32;;;;;;;69.33;5.50;;;22.90;1.00;;;;;;4402951;28;656843;-64
2024/03/31 10:11:18;;;;;;;53.50;4.93;;;23.00;1.00;;;;;;4422474;28;657913;-65
2024/03/31 10:14:05;;;;;;;71.23;6.10;;;23.00;1.00;;;;;;4417320;28;656690;-64
2024/03/31 10:16:51;;;;;;;50.97;4.67;;;23.10;1.00;;;;;;4403787;28;657931;-64
2024/03/31 10:19:40;;;;;;;51.17;5.27;;;24.10;1.00;;;;;;4418423;28;657716;-64
2024/03/31 10:22:26;;;;;;;71.27;5.47;;;23.50;1.00;;;;;;4399456;28;656814;-64
2024/03/31 10:25:14;;;;;;;58.73;6.90;;;23.60;1.00;;;;;;4425508;28;657658;-64
2024/03/31 10:28:00;;;;;;;83.47;6.33;;;23.40;1.00;;;;;;4402397;28;656524;-65
2024/03/31 10:30:47;;;;;;;85.43;6.37;;;23.20;1.00;;;;;;4417355;28;656413;-64
2024/03/31 10:33:33;;;;;;;63.23;6.00;;;23.20;1.00;;;;;;4420791;28;656189;-64
2024/03/31 10:36:22;;;;;;;31.20;3.50;;;23.10;1.00;;;;;;4408606;28;656971;-65
2024/03/31 10:39:08;;;;;;;40.80;4.87;;;23.20;1.00;;;;;;4421620;28;657470;-65
2024/03/31 10:41:56;;;;;;;76.63;5.97;;;23.30;1.00;;;;;;4396214;28;656909;-66
2024/03/31 10:44:42;;;;;;;36.50;3.80;;;23.70;1.00;;;;;;4423582;28;656854;-64
2024/03/31 10:47:29;;;;;;;60.20;6.37;;;24.00;1.00;;;;;;4423222;28;657876;-64
2024/03/31 10:50:16;;;;;;;75.03;7.20;;;23.90;1.00;;;;;;4412328;28;656635;-65
2024/03/31 10:53:04;;;;;;;76.27;7.10;;;24.40;1.00;;;;;;4423709;28;657568;-65
2024/03/31 10:55:51;;;;;;;97.30;7.43;;;25.10;1.00;;;;;;4408820;28;656555;-64
2024/03/31 10:58:39;;;;;;;73.63;7.10;;;25.10;1.00;;;;;;4422516;28;656807;-64
2024/03/31 11:01:26;;;;;;;88.30;8.03;;;24.30;1.00;;;;;;4405373;28;656761;-64
2024/03/31 11:04:17;;;;;;;69.60;6.43;;;24.40;1.00;;;;;;4432807;28;658120;-64
2024/03/31 11:07:05;;;;;;;61.07;5.57;;;24.30;1.00;;;;;;4398499;28;657382;-64
2024/03/31 11:09:53;;;;;;;90.63;8.03;;;24.00;1.00;;;;;;4411144;28;659081;-64
2024/03/31 11:12:42;;;;;;;74.10;6.07;;;24.70;1.00;;;;;;4424109;28;656499;-65
2024/03/31 11:15:28;;;;;;;68.67;6.87;;;25.00;1.00;;;;;;4426738;28;657206;-64
2024/03/31 11:18:16;;;;;;;80.20;7.90;;;24.40;1.00;;;;;;4409966;28;656648;-64
2024/03/31 11:21:07;;;;;;;77.53;7.68;;;24.50;1.00;;;;;;4422394;28;656665;-64
2024/03/31 11:23:54;;;;;;;74.33;8.43;;;24.50;1.00;;;;;;4391154;28;656977;-64
2024/03/31 11:26:42;;;;;;;78.80;6.90;;;24.90;1.00;;;;;;4408323;28;657013;-64
2024/03/31 11:29:29;;;;;;;100.67;10.23;;;24.60;1.00;;;;;;4420133;28;657020;-64
2024/03/31 11:32:16;;;;;;;100.90;8.27;;;24.00;1.00;;;;;;4391418;28;658674;-64
2024/03/31 11:35:04;;;;;;;53.83;5.87;;;24.20;1.00;;;;;;4428443;28;657614;-64
2024/03/31 11:37:50;;;;;;;96.30;8.20;;;23.80;1.00;;;;;;4406099;28;656269;-64
2024/03/31 11:40:38;;;;;;;35.97;4.73;;;23.70;1.00;;;;;;4414407;28;656234;-64
2024/03/31 11:43:26;;;;;;;69.43;7.40;;;23.60;99.90;;;;;;4429688;28;656421;-64
2024/03/31 11:46:12;;;;;;;45.40;5.73;;;23.40;1.00;;;;;;4406159;28;659274;-64
2024/03/31 11:49:00;;;;;;;98.40;9.60;;;23.70;1.00;;;;;;4423735;28;656936;-63
2024/03/31 11:51:47;;;;;;;116.00;9.87;;;23.80;1.00;;;;;;4403068;28;656800;-65
2024/03/31 11:54:33;;;;;;;102.17;8.80;;;23.90;1.00;;;;;;4423064;28;658430;-63
2024/03/31 11:57:21;;;;;;;95.77;7.60;;;23.80;1.00;;;;;;4419563;28;657875;-65
2024/03/31 12:00:11;;;;;;;80.53;8.63;;;23.60;1.00;;;;;;4420911;28;657506;-64
2024/03/31 12:03:05;;;;;;;85.30;8.00;;;23.60;1.00;;;;;;4402610;28;656708;-63
2024/03/31 12:05:51;;;;;;;101.17;9.67;;;24.20;1.00;;;;;;4383401;28;657952;-64
2024/03/31 12:08:38;;;;;;;101.17;9.03;;;24.00;1.00;;;;;;4435296;28;658243;-64
2024/03/31 12:11:25;;;;;;;97.03;10.37;;;24.00;1.00;;;;;;4406834;28;657411;-66
2024/03/31 12:14:13;;;;;;;86.83;7.57;;;24.10;1.00;;;;;;4419260;28;658083;-64
2024/03/31 12:17:00;;;;;;;73.23;8.20;;;24.10;1.00;;;;;;4421233;28;657427;-63
2024/03/31 12:19:48;;;;;;;39.03;4.23;;;23.60;1.00;;;;;;4401151;28;656437;-64
2024/03/31 12:22:35;;;;;;;69.27;7.67;;;23.10;1.00;;;;;;4422391;28;656243;-65
2024/03/31 12:25:22;;;;;;;85.50;8.53;;;23.10;1.00;;;;;;4394595;28;656386;-65
2024/03/31 12:28:08;;;;;;;42.77;6.07;;;23.00;1.00;;;;;;4421951;28;656599;-63
2024/03/31 12:30:56;;;;;;;53.97;6.33;;;22.80;1.00;;;;;;4407284;28;656960;-65
2024/03/31 12:33:43;;;;;;;96.50;8.63;;;22.70;1.00;;;;;;4422563;28;656676;-64
2024/03/31 12:36:31;;;;;;;100.67;8.43;;;22.70;1.00;;;;;;4414011;28;657162;-65
2024/03/31 12:39:17;;;;;;;91.70;8.70;;;22.80;1.00;;;;;;4411140;28;658473;-65
2024/03/31 12:42:05;;;;;;;85.13;7.37;;;23.00;1.00;;;;;;4412944;28;657726;-64
2024/03/31 12:44:55;;;;;;;102.43;9.23;;;23.00;1.00;;;;;;4401956;28;658804;-64
2024/03/31 12:47:42;;;;;;;86.57;8.83;;;22.90;1.00;;;;;;4406500;28;658869;-64
2024/03/31 12:50:30;;;;;;;77.63;7.63;;;22.60;1.00;;;;;;4419946;28;656790;-63
2024/03/31 12:53:17;;;;;;;73.23;7.23;;;22.50;1.00;;;;;;4393033;28;657764;-64
2024/03/31 12:56:04;;;;;;;61.93;6.67;;;22.50;99.90;;;;;;4423766;28;656832;-65
2024/03/31 12:58:52;;;;;;;87.57;9.30;;;22.60;99.90;;;;;;4404985;28;657823;-65
2024/03/31 13:01:38;;;;;;;97.77;9.10;;;22.50;99.90;;;;;;4422938;28;657619;-65
2024/03/31 13:04:26;;;;;;;55.70;4.97;;;22.60;99.90;;;;;;4415413;28;657607;-64
2024/03/31 13:07:14;;;;;;;44.27;4.93;;;22.60;99.90;;;;;;4425783;28;657973;-64
2024/03/31 13:10:01;;;;;;;85.60;8.47;;;22.70;99.90;;;;;;4406893;28;657780;-64
2024/03/31 13:12:48;;;;;;;89.03;8.10;;;22.60;99.90;;;;;;4417461;28;658942;-64
2024/03/31 13:15:35;;;;;;;73.83;6.80;;;22.80;99.90;;;;;;4412814;28;657569;-66
2024/03/31 13:18:22;;;;;;;78.93;7.60;;;22.50;99.90;;;;;;4420835;28;657524;-64
2024/03/31 13:21:08;;;;;;;62.70;7.27;;;22.50;99.90;;;;;;4409696;28;657212;-63
2024/03/31 13:23:57;;;;;;;88.47;8.70;;;22.40;99.90;;;;;;4411828;28;657580;-65
2024/03/31 13:26:43;;;;;;;78.93;8.47;;;22.50;99.90;;;;;;4412147;28;657622;-64
2024/03/31 13:29:31;;;;;;;79.33;7.27;;;22.30;99.90;;;;;;4403177;28;657562;-65
2024/03/31 13:32:17;;;;;;;68.67;6.40;;;22.40;99.90;;;;;;4418404;28;659133;-64
2024/03/31 13:35:05;;;;;;;78.93;8.90;;;22.20;99.90;;;;;;4424403;28;658396;-64
2024/03/31 13:37:51;;;;;;;100.33;9.30;;;22.10;99.90;;;;;;4398212;28;657730;-65
2024/03/31 13:40:40;;;;;;;79.13;8.03;;;22.10;99.90;;;;;;4411366;28;660041;-64
2024/03/31 13:43:26;;;;;;;85.53;8.50;;;22.30;99.90;;;;;;4400062;28;657423;-65
2024/03/31 13:46:13;;;;;;;109.67;9.33;;;22.50;99.90;;;;;;4416409;28;659598;-65
2024/03/31 13:49:01;;;;;;;75.37;8.47;;;22.60;99.90;;;;;;4414196;28;658632;-65
2024/03/31 13:51:48;;;;;;;89.50;8.37;;;22.60;99.90;;;;;;4429097;28;658367;-64
2024/03/31 13:54:35;;;;;;;82.10;8.53;;;22.40;99.90;;;;;;4417525;28;658038;-64
2024/03/31 13:57:23;;;;;;;51.60;6.40;;;22.30;99.90;;;;;;4423358;28;657559;-64
2024/03/31 14:00:11;;;;;;;82.43;8.37;;;22.30;99.90;;;;;;4410500;28;657981;-65
2024/03/31 14:02:59;;;;;;;53.47;5.70;;;22.20;99.90;;;;;;4415590;28;658161;-64
2024/03/31 14:05:47;;;;;;;98.60;8.53;;;22.10;99.90;;;;;;4396417;28;660735;-65
2024/03/31 14:08:33;;;;;;;126.57;8.43;;;22.10;99.90;;;;;;4426237;28;658872;-64
2024/03/31 14:11:20;;;;;;;79.80;7.37;;;22.20;99.90;;;;;;4415322;28;659261;-64